Sunday, November 23, 2014, 4:01 PM CST
Back to Local

KHDC, Hammond, Hammond Municipal Airport

Location: Hammond, LA, United States Lat: 30.521
Local Time: 4:01 PM CST (22:01 GMT) Lon: -90.418
Time Zone: US/Central Elev: 42 ft

Show me the last for .
Show Coded

Time T Td Feel RH Dir Speed Gust Alt SLP Vis Weather Sky Remarks
2014-11-23 15:35 75 57 78 53 220° 10 17 29.64 - 10 SCT038 None
2014-11-23 15:15 75 55 77 50 230° 17 23 29.63 - 10 SCT038 None
2014-11-23 14:55 75 57 78 53 240° 12 28 29.62 - 10 SCT035 BKN041 None
2014-11-23 14:35 73 57 77 56 240° 15 26 29.63 - 10 SCT036 SCT043 None
2014-11-23 14:15 75 57 78 53 240° 16 25 29.62 - 10 SCT036 BKN041 None
2014-11-23 13:55 73 57 77 56 240° 14 24 29.63 - 10 BKN038 None
2014-11-23 13:35 73 57 77 56 250° 14 28 29.63 - 10 BKN036 BKN043 None
2014-11-23 13:15 73 57 77 56 230° 18 25 29.63 - 10 SCT035 BKN043 None
2014-11-23 12:55 72 57 76 60 230° 17 23 29.64 - 10 SCT032 BKN040 BKN048 None
2014-11-23 12:35 72 59 76 64 230° 13 23 29.64 - 10 SCT030 BKN036 OVC050 None
2014-11-23 12:15 70 59 - 68 230° 8 18 29.66 - 10 SCT027 BKN032 OVC047 None
2014-11-23 11:55 70 59 - 68 240° 9 - 29.67 - 10 SCT024 BKN031 OVC044 None
2014-11-23 11:35 70 59 - 68 240° 10 20 29.68 - 10 SCT017 BKN031 OVC036 None
2014-11-23 11:15 68 59 - 72 230° 12 18 29.69 - 10 SCT015 BKN023 OVC029 None
2014-11-23 10:35 66 61 - 82 200° 16 22 29.70 - 10 SCT012 SCT017 None
2014-11-23 10:15 64 61 - 88 190° 9 - 29.69 - 10 CLR None
2014-11-23 09:55 64 59 - 82 190° 10 18 29.71 - 10 SCT022 SCT080 SCT110 None
2014-11-23 09:35 64 61 - 88 220° 9 - 29.71 - 10 SCT018 SCT028 SCT080 None
2014-11-23 09:15 64 61 - 88 180° 9 - 29.68 - 10 BKN120 None
2014-11-23 08:55 64 61 - 88 140° 10 17 29.64 - 10 -DZ SCT044 SCT065 BKN110 1-hr Precip Total: 0.02"
2014-11-23 08:35 64 63 - 93 140° 10 - 29.65 - 10 -DZ SCT010 BKN048 OVC090 1-hr Precip Total: 0.02"
2014-11-23 08:15 66 63 - 88 180° 10 - 29.70 - 10 DZ BKN008 BKN032 OVC048 1-hr Precip Total: 0.01"
2014-11-23 07:55 66 63 - 88 170° 13 17 29.72 - 10 SCT008 BKN041 OVC095 1-hr Precip Total: 0.04"
2014-11-23 07:35 66 63 - 88 160° 14 18 29.70 - 10 SCT012 BKN035 OVC095 1-hr Precip Total: 0.04"
2014-11-23 07:15 66 63 - 88 190° 15 33 29.72 - 7 -RA SCT003 BKN010 OVC024 1-hr Precip Total: 0.04"
2014-11-23 06:55 64 61 - 88 90° 6 - 29.70 - 5 -RA BKN003 OVC007 1-hr Precip Total: 0.20"
2014-11-23 06:35 64 61 - 88 90° 6 - 29.71 - 5 -RA BKN003 OVC006 1-hr Precip Total: 0.11"
2014-11-23 06:15 64 61 - 88 90° 5 - 29.73 - 5 -RA OVC003 1-hr Precip Total: 0.02"
2014-11-23 05:55 64 61 - 88 90° 5 - 29.73 - 5 -RA OVC003 None
2014-11-23 05:35 64 61 - 88 90° 6 - 29.74 - 5 BR BKN003 OVC006 None
2014-11-23 05:15 64 61 - 88 100° 7 - 29.76 - 7 OVC003 None
2014-11-23 04:55 64 61 - 88 120° 5 - 29.76 - 10 OVC005 1-hr Precip Total: 0.01"
2014-11-23 04:15 64 61 - 88 100° 6 - 29.77 - 10 -RA OVC007 None
2014-11-23 03:55 64 61 - 88 100° 6 - 29.79 - 10 OVC007 None
2014-11-23 03:35 64 61 - 88 110° 6 - 29.79 - 10 OVC007 None
2014-11-23 03:15 64 61 - 88 100° 8 - 29.79 - 10 OVC007 None
2014-11-23 02:55 64 61 - 88 110° 8 - 29.80 - 10 OVC007 None
2014-11-23 02:35 64 59 - 82 100° 8 - 29.81 - 10 OVC007 None
2014-11-23 02:15 64 59 - 82 100° 8 - 29.81 - 10 OVC007 None
2014-11-23 01:55 64 59 - 82 100° 8 - 29.84 - 10 OVC009 None
2014-11-23 01:35 64 59 - 82 100° 9 - 29.84 - 10 OVC009 None
2014-11-23 01:15 64 59 - 82 110° 8 - 29.87 - 10 OVC009 None
2014-11-23 00:55 64 61 - 88 110° 9 - 29.88 - 10 OVC007 None
2014-11-23 00:35 64 61 - 88 120° 8 - 29.88 - 10 OVC009 None
2014-11-23 00:15 64 61 - 88 100° 9 - 29.87 - 10 OVC009 None
2014-11-22 23:55 64 61 - 88 110° 12 18 29.90 - 10 OVC009 None
2014-11-22 23:35 64 61 - 88 100° 12 21 29.90 - 10 OVC009 None
2014-11-22 23:15 66 61 - 82 110° 10 - 29.91 - 10 OVC009 None
2014-11-22 22:55 66 61 - 82 130° 10 - 29.94 - 10 OVC009 None
2014-11-22 22:35 66 61 - 82 110° 8 - 29.94 - 10 OVC011 None
2014-11-22 22:15 64 61 - 88 130° 8 - 29.95 - 10 OVC011 None
2014-11-22 21:55 64 61 - 88 120° 9 - 29.95 - 10 OVC011 None
2014-11-22 21:35 64 59 - 82 120° 12 - 29.95 - 10 OVC009 None
2014-11-22 21:15 64 59 - 82 110° 6 - 29.96 - 10 OVC009 None
2014-11-22 20:55 64 59 - 82 110° 13 17 29.95 - 10 OVC011 None
2014-11-22 20:35 63 59 - 88 100° 10 - 29.97 - 10 OVC011 None
2014-11-22 20:15 63 57 - 82 100° 10 - 29.99 - 10 BKN011 OVC015 None
2014-11-22 19:55 63 57 - 82 100° 7 - 30.02 - 10 OVC011 None
2014-11-22 19:35 63 57 - 82 100° 7 - 30.02 - 10 BKN011 BKN018 BKN060 None
2014-11-22 19:15 63 57 - 82 100° 7 - 30.02 - 10 BKN014 BKN018 None
2014-11-22 18:55 63 57 - 82 100° 9 - 30.02 - 10 OVC016 None
2014-11-22 18:35 63 57 - 82 110° 8 - 30.04 - 10 BKN016 None
2014-11-22 18:15 63 57 - 82 110° 7 - 30.03 - 10 SCT018 None
2014-11-22 17:55 63 57 - 82 100° 10 - 30.03 - 10 CLR None
2014-11-22 17:35 63 55 - 77 120° 10 - 30.05 - 10 SCT050 None
2014-11-22 17:15 64 55 - 72 120° 10 - 30.05 - 10 BKN050 None
2014-11-22 16:55 64 55 - 72 110° 8 - 30.05 - 10 SCT050 None
2014-11-22 16:35 66 55 - 68 100° 9 - 30.05 - 10 BKN050 None
2014-11-22 16:15 68 55 - 64 100° 8 - 30.06 - 10 BKN050 BKN065 None

Support USWX by starting your Amazon purchase here.